sensor_id;sensor_type;location;lat;lon;timestamp;temperature;humidity
30534;DHT22;73248;52.398;9.814;2024-03-02T00:00:26;10.60;99.70
30534;DHT22;73248;52.398;9.814;2024-03-02T00:02:52;10.60;99.80
30534;DHT22;73248;52.398;9.814;2024-03-02T00:05:19;10.60;99.70
30534;DHT22;73248;52.398;9.814;2024-03-02T00:07:53;10.60;99.90
30534;DHT22;73248;52.398;9.814;2024-03-02T00:10:34;10.60;99.80
30534;DHT22;73248;52.398;9.814;2024-03-02T00:13:02;10.60;99.80
30534;DHT22;73248;52.398;9.814;2024-03-02T00:17:57;10.50;99.90
30534;DHT22;73248;52.398;9.814;2024-03-02T00:20:25;10.50;99.90
30534;DHT22;73248;52.398;9.814;2024-03-02T00:23:04;10.40;99.90
30534;DHT22;73248;52.398;9.814;2024-03-02T00:25:50;10.40;99.90
30534;DHT22;73248;52.398;9.814;2024-03-02T00:33:33;10.40;99.90
30534;DHT22;73248;52.398;9.814;2024-03-02T00:35:59;10.40;99.90
30534;DHT22;73248;52.398;9.814;2024-03-02T00:38:26;10.40;99.90
30534;DHT22;73248;52.398;9.814;2024-03-02T00:40:52;10.40;99.90
30534;DHT22;73248;52.398;9.814;2024-03-02T00:43:43;10.30;99.90
30534;DHT22;73248;52.398;9.814;2024-03-02T00:46:11;10.30;99.90
30534;DHT22;73248;52.398;9.814;2024-03-02T00:48:37;10.20;99.90
30534;DHT22;73248;52.398;9.814;2024-03-02T00:51:03;10.10;99.90
30534;DHT22;73248;52.398;9.814;2024-03-02T00:53:33;10.10;99.90
30534;DHT22;73248;52.398;9.814;2024-03-02T00:55:59;10.10;99.90
30534;DHT22;73248;52.398;9.814;2024-03-02T00:58:26;10.00;99.90
30534;DHT22;73248;52.398;9.814;2024-03-02T01:00:51;10.00;99.90
30534;DHT22;73248;52.398;9.814;2024-03-02T01:03:17;10.00;99.90
30534;DHT22;73248;52.398;9.814;2024-03-02T01:05:44;10.10;99.90
30534;DHT22;73248;52.398;9.814;2024-03-02T01:08:10;10.10;99.90
30534;DHT22;73248;52.398;9.814;2024-03-02T01:10:36;10.10;99.90
30534;DHT22;73248;52.398;9.814;2024-03-02T01:13:02;10.10;99.90
30534;DHT22;73248;52.398;9.814;2024-03-02T01:15:28;10.10;99.90
30534;DHT22;73248;52.398;9.814;2024-03-02T01:17:53;10.10;99.90
30534;DHT22;73248;52.398;9.814;2024-03-02T01:20:19;10.10;99.90
30534;DHT22;73248;52.398;9.814;2024-03-02T01:22:44;10.10;99.90
30534;DHT22;73248;52.398;9.814;2024-03-02T01:25:10;10.10;99.90
30534;DHT22;73248;52.398;9.814;2024-03-02T01:27:35;10.10;99.90
30534;DHT22;73248;52.398;9.814;2024-03-02T01:30:01;10.10;99.90
30534;DHT22;73248;52.398;9.814;2024-03-02T01:32:27;10.10;99.90
30534;DHT22;73248;52.398;9.814;2024-03-02T01:34:52;10.10;99.90
30534;DHT22;73248;52.398;9.814;2024-03-02T01:37:18;10.10;99.90
30534;DHT22;73248;52.398;9.814;2024-03-02T01:39:43;10.10;99.90
30534;DHT22;73248;52.398;9.814;2024-03-02T01:42:09;10.10;99.90
30534;DHT22;73248;52.398;9.814;2024-03-02T01:44:36;10.10;99.90
30534;DHT22;73248;52.398;9.814;2024-03-02T01:47:01;10.10;99.90
30534;DHT22;73248;52.398;9.814;2024-03-02T01:49:27;10.10;99.90
30534;DHT22;73248;52.398;9.814;2024-03-02T01:51:53;10.10;99.90
30534;DHT22;73248;52.398;9.814;2024-03-02T01:54:18;10.10;99.90
30534;DHT22;73248;52.398;9.814;2024-03-02T01:56:44;10.10;99.90
30534;DHT22;73248;52.398;9.814;2024-03-02T01:59:10;10.10;99.90
30534;DHT22;73248;52.398;9.814;2024-03-02T02:01:36;10.20;99.90
30534;DHT22;73248;52.398;9.814;2024-03-02T02:04:02;10.10;99.90
30534;DHT22;73248;52.398;9.814;2024-03-02T02:06:27;10.10;99.90
30534;DHT22;73248;52.398;9.814;2024-03-02T02:08:53;10.10;99.90
30534;DHT22;73248;52.398;9.814;2024-03-02T02:11:19;10.10;99.90
30534;DHT22;73248;52.398;9.814;2024-03-02T02:13:44;10.10;99.90
30534;DHT22;73248;52.398;9.814;2024-03-02T02:16:10;10.00;99.90
30534;DHT22;73248;52.398;9.814;2024-03-02T02:18:36;10.00;99.90
30534;DHT22;73248;52.398;9.814;2024-03-02T02:21:02;10.10;99.90
30534;DHT22;73248;52.398;9.814;2024-03-02T02:23:29;10.00;99.90
30534;DHT22;73248;52.398;9.814;2024-03-02T02:25:57;9.90;99.90
30534;DHT22;73248;52.398;9.814;2024-03-02T02:28:23;10.00;99.90
30534;DHT22;73248;52.398;9.814;2024-03-02T02:30:48;9.90;99.90
30534;DHT22;73248;52.398;9.814;2024-03-02T02:33:14;9.90;99.90
30534;DHT22;73248;52.398;9.814;2024-03-02T02:35:40;9.90;99.90
30534;DHT22;73248;52.398;9.814;2024-03-02T02:38:05;9.90;99.90
30534;DHT22;73248;52.398;9.814;2024-03-02T02:40:31;10.00;99.90
30534;DHT22;73248;52.398;9.814;2024-03-02T02:42:57;10.00;99.90
30534;DHT22;73248;52.398;9.814;2024-03-02T02:45:24;9.90;99.90
30534;DHT22;73248;52.398;9.814;2024-03-02T02:47:50;9.90;99.90
30534;DHT22;73248;52.398;9.814;2024-03-02T02:50:16;10.00;99.90
30534;DHT22;73248;52.398;9.814;2024-03-02T02:52:42;10.00;99.90
30534;DHT22;73248;52.398;9.814;2024-03-02T02:55:09;10.00;99.90
30534;DHT22;73248;52.398;9.814;2024-03-02T02:57:36;10.00;99.90
30534;DHT22;73248;52.398;9.814;2024-03-02T03:00:08;9.90;99.90
30534;DHT22;73248;52.398;9.814;2024-03-02T03:02:43;9.90;99.90
30534;DHT22;73248;52.398;9.814;2024-03-02T03:05:10;9.90;99.90
30534;DHT22;73248;52.398;9.814;2024-03-02T03:07:37;9.90;99.90
30534;DHT22;73248;52.398;9.814;2024-03-02T03:10:03;9.90;99.90
30534;DHT22;73248;52.398;9.814;2024-03-02T03:12:30;9.90;99.90
30534;DHT22;73248;52.398;9.814;2024-03-02T03:14:56;9.80;99.90
30534;DHT22;73248;52.398;9.814;2024-03-02T03:17:22;9.80;99.90
30534;DHT22;73248;52.398;9.814;2024-03-02T03:19:49;9.80;99.90
30534;DHT22;73248;52.398;9.814;2024-03-02T03:22:14;9.80;99.90
30534;DHT22;73248;52.398;9.814;2024-03-02T03:24:40;9.80;99.90
30534;DHT22;73248;52.398;9.814;2024-03-02T03:27:05;9.80;99.90
30534;DHT22;73248;52.398;9.814;2024-03-02T03:29:31;9.80;99.90
30534;DHT22;73248;52.398;9.814;2024-03-02T03:31:56;9.70;99.90
30534;DHT22;73248;52.398;9.814;2024-03-02T03:34:22;9.70;99.90
30534;DHT22;73248;52.398;9.814;2024-03-02T03:36:48;9.70;99.90
30534;DHT22;73248;52.398;9.814;2024-03-02T03:39:13;9.60;99.90
30534;DHT22;73248;52.398;9.814;2024-03-02T03:41:40;9.60;99.90
30534;DHT22;73248;52.398;9.814;2024-03-02T03:44:06;9.60;99.90
30534;DHT22;73248;52.398;9.814;2024-03-02T03:46:32;9.50;99.90
30534;DHT22;73248;52.398;9.814;2024-03-02T03:48:57;9.50;99.90
30534;DHT22;73248;52.398;9.814;2024-03-02T03:51:23;9.50;99.90
30534;DHT22;73248;52.398;9.814;2024-03-02T03:53:49;9.40;99.90
30534;DHT22;73248;52.398;9.814;2024-03-02T03:56:14;9.30;99.90
30534;DHT22;73248;52.398;9.814;2024-03-02T03:58:40;9.20;99.90
30534;DHT22;73248;52.398;9.814;2024-03-02T04:01:05;9.20;99.90
30534;DHT22;73248;52.398;9.814;2024-03-02T04:03:31;9.10;99.90
30534;DHT22;73248;52.398;9.814;2024-03-02T04:05:56;9.20;99.90
30534;DHT22;73248;52.398;9.814;2024-03-02T04:08:22;9.10;99.90
30534;DHT22;73248;52.398;9.814;2024-03-02T04:10:51;9.00;99.90
30534;DHT22;73248;52.398;9.814;2024-03-02T04:13:16;9.00;99.90
30534;DHT22;73248;52.398;9.814;2024-03-02T04:15:42;9.10;99.90
30534;DHT22;73248;52.398;9.814;2024-03-02T04:18:08;9.00;99.90
30534;DHT22;73248;52.398;9.814;2024-03-02T04:20:33;9.00;99.90
30534;DHT22;73248;52.398;9.814;2024-03-02T04:22:59;8.90;99.90
30534;DHT22;73248;52.398;9.814;2024-03-02T04:25:24;8.90;99.90
30534;DHT22;73248;52.398;9.814;2024-03-02T04:27:50;8.90;99.90
30534;DHT22;73248;52.398;9.814;2024-03-02T04:30:15;8.90;99.90
30534;DHT22;73248;52.398;9.814;2024-03-02T04:32:41;8.90;99.90
30534;DHT22;73248;52.398;9.814;2024-03-02T04:35:07;8.80;99.90
30534;DHT22;73248;52.398;9.814;2024-03-02T04:37:35;8.80;99.90
30534;DHT22;73248;52.398;9.814;2024-03-02T04:40:01;8.80;99.90
30534;DHT22;73248;52.398;9.814;2024-03-02T04:42:26;8.70;99.90
30534;DHT22;73248;52.398;9.814;2024-03-02T04:44:52;8.80;99.90
30534;DHT22;73248;52.398;9.814;2024-03-02T04:47:18;8.70;99.90
30534;DHT22;73248;52.398;9.814;2024-03-02T04:49:43;8.70;99.90
30534;DHT22;73248;52.398;9.814;2024-03-02T04:52:09;8.70;99.90
30534;DHT22;73248;52.398;9.814;2024-03-02T04:54:35;8.70;99.90
30534;DHT22;73248;52.398;9.814;2024-03-02T04:57:20;8.70;99.90
30534;DHT22;73248;52.398;9.814;2024-03-02T04:59:46;8.70;99.90
30534;DHT22;73248;52.398;9.814;2024-03-02T05:02:11;8.70;99.90
30534;DHT22;73248;52.398;9.814;2024-03-02T05:04:39;8.70;99.90
30534;DHT22;73248;52.398;9.814;2024-03-02T05:07:05;8.60;99.90
30534;DHT22;73248;52.398;9.814;2024-03-02T05:09:31;8.60;99.90
30534;DHT22;73248;52.398;9.814;2024-03-02T05:11:57;8.60;99.90
30534;DHT22;73248;52.398;9.814;2024-03-02T05:14:37;8.60;99.90
30534;DHT22;73248;52.398;9.814;2024-03-02T05:17:04;8.50;99.90
30534;DHT22;73248;52.398;9.814;2024-03-02T05:19:29;8.50;99.90
30534;DHT22;73248;52.398;9.814;2024-03-02T05:21:55;8.40;99.90
30534;DHT22;73248;52.398;9.814;2024-03-02T05:24:20;8.40;99.90
30534;DHT22;73248;52.398;9.814;2024-03-02T05:26:46;8.30;99.90
30534;DHT22;73248;52.398;9.814;2024-03-02T05:29:11;8.30;99.90
30534;DHT22;73248;52.398;9.814;2024-03-02T05:31:37;8.30;99.90
30534;DHT22;73248;52.398;9.814;2024-03-02T05:34:03;8.20;99.90
30534;DHT22;73248;52.398;9.814;2024-03-02T05:36:28;8.20;99.90
30534;DHT22;73248;52.398;9.814;2024-03-02T05:38:54;8.10;99.90
30534;DHT22;73248;52.398;9.814;2024-03-02T05:41:20;8.00;99.90
30534;DHT22;73248;52.398;9.814;2024-03-02T05:43:46;8.00;99.90
30534;DHT22;73248;52.398;9.814;2024-03-02T05:46:11;8.00;99.90
30534;DHT22;73248;52.398;9.814;2024-03-02T05:48:37;7.90;99.90
30534;DHT22;73248;52.398;9.814;2024-03-02T05:51:03;7.90;99.90
30534;DHT22;73248;52.398;9.814;2024-03-02T05:53:28;7.80;99.90
30534;DHT22;73248;52.398;9.814;2024-03-02T05:55:54;7.80;99.90
30534;DHT22;73248;52.398;9.814;2024-03-02T05:58:21;7.80;99.90
30534;DHT22;73248;52.398;9.814;2024-03-02T06:00:59;7.80;99.90
30534;DHT22;73248;52.398;9.814;2024-03-02T06:03:25;7.80;99.90
30534;DHT22;73248;52.398;9.814;2024-03-02T06:05:51;7.70;99.90
30534;DHT22;73248;52.398;9.814;2024-03-02T06:08:17;7.70;99.90
30534;DHT22;73248;52.398;9.814;2024-03-02T06:10:43;7.80;99.90
30534;DHT22;73248;52.398;9.814;2024-03-02T06:13:08;7.70;99.90
30534;DHT22;73248;52.398;9.814;2024-03-02T06:15:34;7.70;99.90
30534;DHT22;73248;52.398;9.814;2024-03-02T06:18:01;7.60;99.90
30534;DHT22;73248;52.398;9.814;2024-03-02T06:20:27;7.60;99.90
30534;DHT22;73248;52.398;9.814;2024-03-02T06:22:52;7.50;99.90
30534;DHT22;73248;52.398;9.814;2024-03-02T06:25:18;7.50;99.90
30534;DHT22;73248;52.398;9.814;2024-03-02T06:27:43;7.50;99.90
30534;DHT22;73248;52.398;9.814;2024-03-02T06:30:09;7.50;99.90
30534;DHT22;73248;52.398;9.814;2024-03-02T06:32:35;7.50;99.90
30534;DHT22;73248;52.398;9.814;2024-03-02T06:35:01;7.50;99.90
30534;DHT22;73248;52.398;9.814;2024-03-02T06:37:26;7.50;99.90
30534;DHT22;73248;52.398;9.814;2024-03-02T06:39:52;7.50;99.90
30534;DHT22;73248;52.398;9.814;2024-03-02T06:42:17;7.50;99.90
30534;DHT22;73248;52.398;9.814;2024-03-02T06:44:43;7.50;99.90
30534;DHT22;73248;52.398;9.814;2024-03-02T06:47:08;7.50;99.90
30534;DHT22;73248;52.398;9.814;2024-03-02T06:49:34;7.60;99.90
30534;DHT22;73248;52.398;9.814;2024-03-02T06:52:00;7.50;99.90
30534;DHT22;73248;52.398;9.814;2024-03-02T06:54:26;7.50;99.90
30534;DHT22;73248;52.398;9.814;2024-03-02T06:56:53;7.60;99.90
30534;DHT22;73248;52.398;9.814;2024-03-02T06:59:18;7.40;99.90
30534;DHT22;73248;52.398;9.814;2024-03-02T07:01:44;7.50;99.90
30534;DHT22;73248;52.398;9.814;2024-03-02T07:04:10;7.60;99.90
30534;DHT22;73248;52.398;9.814;2024-03-02T07:06:35;7.60;99.90
30534;DHT22;73248;52.398;9.814;2024-03-02T07:09:01;7.70;99.90
30534;DHT22;73248;52.398;9.814;2024-03-02T07:11:26;7.70;99.90
30534;DHT22;73248;52.398;9.814;2024-03-02T07:13:52;7.80;99.90
30534;DHT22;73248;52.398;9.814;2024-03-02T07:16:17;7.80;99.90
30534;DHT22;73248;52.398;9.814;2024-03-02T07:18:58;7.90;99.90
30534;DHT22;73248;52.398;9.814;2024-03-02T07:21:24;8.00;99.90
30534;DHT22;73248;52.398;9.814;2024-03-02T07:23:50;8.00;99.90
30534;DHT22;73248;52.398;9.814;2024-03-02T07:26:16;8.10;99.90
30534;DHT22;73248;52.398;9.814;2024-03-02T07:28:44;8.20;99.90
30534;DHT22;73248;52.398;9.814;2024-03-02T07:31:09;8.30;99.90
30534;DHT22;73248;52.398;9.814;2024-03-02T07:33:35;8.40;99.90
30534;DHT22;73248;52.398;9.814;2024-03-02T07:36:01;8.40;99.90
30534;DHT22;73248;52.398;9.814;2024-03-02T07:38:28;8.40;99.90
30534;DHT22;73248;52.398;9.814;2024-03-02T07:40:54;8.50;99.90
30534;DHT22;73248;52.398;9.814;2024-03-02T07:43:20;8.60;99.90
30534;DHT22;73248;52.398;9.814;2024-03-02T07:45:46;8.70;99.90
30534;DHT22;73248;52.398;9.814;2024-03-02T07:48:12;8.80;99.90
30534;DHT22;73248;52.398;9.814;2024-03-02T07:50:37;8.90;99.90
30534;DHT22;73248;52.398;9.814;2024-03-02T07:53:04;9.00;99.90
30534;DHT22;73248;52.398;9.814;2024-03-02T07:55:30;9.10;99.90
30534;DHT22;73248;52.398;9.814;2024-03-02T07:58:00;9.20;99.90
30534;DHT22;73248;52.398;9.814;2024-03-02T08:00:26;9.20;99.90
30534;DHT22;73248;52.398;9.814;2024-03-02T08:02:52;9.30;99.90
30534;DHT22;73248;52.398;9.814;2024-03-02T08:05:18;9.40;99.90
30534;DHT22;73248;52.398;9.814;2024-03-02T08:07:45;9.50;99.90
30534;DHT22;73248;52.398;9.814;2024-03-02T08:10:11;9.60;99.90
30534;DHT22;73248;52.398;9.814;2024-03-02T08:12:37;9.70;99.90
30534;DHT22;73248;52.398;9.814;2024-03-02T08:15:03;9.70;99.90
30534;DHT22;73248;52.398;9.814;2024-03-02T08:17:29;9.80;99.90
30534;DHT22;73248;52.398;9.814;2024-03-02T08:19:55;9.90;99.90
30534;DHT22;73248;52.398;9.814;2024-03-02T08:22:21;9.90;99.90
30534;DHT22;73248;52.398;9.814;2024-03-02T08:24:46;10.00;99.90
30534;DHT22;73248;52.398;9.814;2024-03-02T08:27:12;10.10;99.90
30534;DHT22;73248;52.398;9.814;2024-03-02T08:29:38;10.20;99.90
30534;DHT22;73248;52.398;9.814;2024-03-02T08:32:05;10.30;99.90
30534;DHT22;73248;52.398;9.814;2024-03-02T08:34:31;10.30;99.90
30534;DHT22;73248;52.398;9.814;2024-03-02T08:36:56;10.40;99.90
30534;DHT22;73248;52.398;9.814;2024-03-02T08:39:22;10.50;99.90
30534;DHT22;73248;52.398;9.814;2024-03-02T08:41:48;10.60;99.90
30534;DHT22;73248;52.398;9.814;2024-03-02T08:44:14;10.70;99.90
30534;DHT22;73248;52.398;9.814;2024-03-02T08:46:40;10.80;99.90
30534;DHT22;73248;52.398;9.814;2024-03-02T08:49:06;10.90;99.90
30534;DHT22;73248;52.398;9.814;2024-03-02T08:51:32;11.00;99.90
30534;DHT22;73248;52.398;9.814;2024-03-02T08:53:58;11.10;99.90
30534;DHT22;73248;52.398;9.814;2024-03-02T08:56:25;11.20;99.90
30534;DHT22;73248;52.398;9.814;2024-03-02T08:58:51;11.20;99.90
30534;DHT22;73248;52.398;9.814;2024-03-02T09:01:17;11.30;99.90
30534;DHT22;73248;52.398;9.814;2024-03-02T09:03:43;11.40;99.90
30534;DHT22;73248;52.398;9.814;2024-03-02T09:06:12;11.50;99.90
30534;DHT22;73248;52.398;9.814;2024-03-02T09:08:39;11.50;99.90
30534;DHT22;73248;52.398;9.814;2024-03-02T09:11:05;11.60;99.90
30534;DHT22;73248;52.398;9.814;2024-03-02T09:13:32;11.70;99.90
30534;DHT22;73248;52.398;9.814;2024-03-02T09:15:57;11.80;99.90
30534;DHT22;73248;52.398;9.814;2024-03-02T09:18:23;11.90;99.90
30534;DHT22;73248;52.398;9.814;2024-03-02T09:20:48;12.00;99.90
30534;DHT22;73248;52.398;9.814;2024-03-02T09:23:14;12.00;99.90
30534;DHT22;73248;52.398;9.814;2024-03-02T09:25:40;12.00;99.90
30534;DHT22;73248;52.398;9.814;2024-03-02T09:28:05;12.10;99.90
30534;DHT22;73248;52.398;9.814;2024-03-02T09:30:32;12.10;99.90
30534;DHT22;73248;52.398;9.814;2024-03-02T09:32:58;12.10;99.90
30534;DHT22;73248;52.398;9.814;2024-03-02T09:35:23;12.20;99.90
30534;DHT22;73248;52.398;9.814;2024-03-02T09:37:49;12.20;99.70
30534;DHT22;73248;52.398;9.814;2024-03-02T09:40:15;12.20;99.50
30534;DHT22;73248;52.398;9.814;2024-03-02T09:42:41;12.30;99.80
30534;DHT22;73248;52.398;9.814;2024-03-02T09:45:09;12.30;99.10
30534;DHT22;73248;52.398;9.814;2024-03-02T09:47:34;12.30;99.10
30534;DHT22;73248;52.398;9.814;2024-03-02T09:50:00;12.40;99.10
30534;DHT22;73248;52.398;9.814;2024-03-02T09:52:26;12.40;99.10
30534;DHT22;73248;52.398;9.814;2024-03-02T09:54:52;12.40;99.30
30534;DHT22;73248;52.398;9.814;2024-03-02T09:57:17;12.40;98.50
30534;DHT22;73248;52.398;9.814;2024-03-02T09:59:43;12.40;98.60
30534;DHT22;73248;52.398;9.814;2024-03-02T10:02:10;12.40;98.90
30534;DHT22;73248;52.398;9.814;2024-03-02T10:04:36;12.40;98.80
30534;DHT22;73248;52.398;9.814;2024-03-02T10:07:20;12.40;98.10
30534;DHT22;73248;52.398;9.814;2024-03-02T10:09:47;12.30;98.50
30534;DHT22;73248;52.398;9.814;2024-03-02T10:12:14;12.40;98.40
30534;DHT22;73248;52.398;9.814;2024-03-02T10:14:41;12.40;98.50
30534;DHT22;73248;52.398;9.814;2024-03-02T10:17:09;12.50;98.50
30534;DHT22;73248;52.398;9.814;2024-03-02T10:19:35;12.60;98.60
30534;DHT22;73248;52.398;9.814;2024-03-02T10:22:03;12.60;98.30
30534;DHT22;73248;52.398;9.814;2024-03-02T10:24:40;12.60;98.60
30534;DHT22;73248;52.398;9.814;2024-03-02T10:27:17;12.60;98.50
30534;DHT22;73248;52.398;9.814;2024-03-02T10:29:46;12.60;98.40
30534;DHT22;73248;52.398;9.814;2024-03-02T10:32:12;12.70;98.50
30534;DHT22;73248;52.398;9.814;2024-03-02T10:34:40;12.70;98.40
30534;DHT22;73248;52.398;9.814;2024-03-02T10:37:06;13.00;98.50
30534;DHT22;73248;52.398;9.814;2024-03-02T10:39:35;13.20;98.40
30534;DHT22;73248;52.398;9.814;2024-03-02T10:42:02;13.50;98.40
30534;DHT22;73248;52.398;9.814;2024-03-02T10:44:30;13.80;98.30
30534;DHT22;73248;52.398;9.814;2024-03-02T10:46:56;14.00;97.90
30534;DHT22;73248;52.398;9.814;2024-03-02T10:49:23;14.20;97.70
30534;DHT22;73248;52.398;9.814;2024-03-02T10:51:49;14.50;97.60
30534;DHT22;73248;52.398;9.814;2024-03-02T10:54:15;14.70;96.80
30534;DHT22;73248;52.398;9.814;2024-03-02T10:56:42;14.90;97.10
30534;DHT22;73248;52.398;9.814;2024-03-02T11:01:59;15.10;96.10
30534;DHT22;73248;52.398;9.814;2024-03-02T11:04:26;15.30;96.00
30534;DHT22;73248;52.398;9.814;2024-03-02T11:07:02;15.30;95.40
30534;DHT22;73248;52.398;9.814;2024-03-02T11:09:28;15.20;95.10
30534;DHT22;73248;52.398;9.814;2024-03-02T11:12:09;15.30;94.80
30534;DHT22;73248;52.398;9.814;2024-03-02T11:14:41;15.40;94.70
30534;DHT22;73248;52.398;9.814;2024-03-02T11:17:11;15.60;94.80
30534;DHT22;73248;52.398;9.814;2024-03-02T11:19:40;15.80;94.80
30534;DHT22;73248;52.398;9.814;2024-03-02T11:22:06;15.70;94.40
30534;DHT22;73248;52.398;9.814;2024-03-02T11:24:33;15.60;94.30
30534;DHT22;73248;52.398;9.814;2024-03-02T11:27:00;15.80;94.20
30534;DHT22;73248;52.398;9.814;2024-03-02T11:32:20;15.90;93.10
30534;DHT22;73248;52.398;9.814;2024-03-02T11:34:48;15.70;93.10
30534;DHT22;73248;52.398;9.814;2024-03-02T11:37:16;15.80;93.50
30534;DHT22;73248;52.398;9.814;2024-03-02T11:39:46;15.90;93.60
30534;DHT22;73248;52.398;9.814;2024-03-02T11:42:13;16.00;93.40
30534;DHT22;73248;52.398;9.814;2024-03-02T11:44:49;15.90;93.60
30534;DHT22;73248;52.398;9.814;2024-03-02T11:47:16;15.90;93.30
30534;DHT22;73248;52.398;9.814;2024-03-02T11:49:50;15.80;93.30
30534;DHT22;73248;52.398;9.814;2024-03-02T11:52:17;15.70;93.10
30534;DHT22;73248;52.398;9.814;2024-03-02T11:54:45;15.60;93.00
30534;DHT22;73248;52.398;9.814;2024-03-02T11:57:23;15.50;93.30
30534;DHT22;73248;52.398;9.814;2024-03-02T11:59:49;15.30;93.20
30534;DHT22;73248;52.398;9.814;2024-03-02T12:02:19;15.30;93.50
30534;DHT22;73248;52.398;9.814;2024-03-02T12:04:46;15.40;93.80
30534;DHT22;73248;52.398;9.814;2024-03-02T12:07:21;15.50;93.50
30534;DHT22;73248;52.398;9.814;2024-03-02T12:09:47;15.40;93.30
30534;DHT22;73248;52.398;9.814;2024-03-02T12:12:13;15.70;94.10
30534;DHT22;73248;52.398;9.814;2024-03-02T12:14:51;16.00;94.00
30534;DHT22;73248;52.398;9.814;2024-03-02T12:17:17;16.30;94.00
30534;DHT22;73248;52.398;9.814;2024-03-02T12:19:43;16.70;93.50
30534;DHT22;73248;52.398;9.814;2024-03-02T12:22:09;16.90;93.20
30534;DHT22;73248;52.398;9.814;2024-03-02T12:24:35;17.20;93.40
30534;DHT22;73248;52.398;9.814;2024-03-02T12:27:03;17.70;93.60
30534;DHT22;73248;52.398;9.814;2024-03-02T12:29:29;18.00;92.00
30534;DHT22;73248;52.398;9.814;2024-03-02T12:31:55;17.90;92.20
30534;DHT22;73248;52.398;9.814;2024-03-02T12:34:21;18.10;92.40
30534;DHT22;73248;52.398;9.814;2024-03-02T12:36:47;18.60;93.40
30534;DHT22;73248;52.398;9.814;2024-03-02T12:39:16;18.50;91.70
30534;DHT22;73248;52.398;9.814;2024-03-02T12:41:42;18.80;92.50
30534;DHT22;73248;52.398;9.814;2024-03-02T12:44:08;19.00;91.80
30534;DHT22;73248;52.398;9.814;2024-03-02T12:46:34;18.90;91.10
30534;DHT22;73248;52.398;9.814;2024-03-02T12:49:09;19.00;90.30
30534;DHT22;73248;52.398;9.814;2024-03-02T12:51:40;18.90;89.10
30534;DHT22;73248;52.398;9.814;2024-03-02T12:54:10;19.30;88.60
30534;DHT22;73248;52.398;9.814;2024-03-02T12:56:40;19.30;88.00
30534;DHT22;73248;52.398;9.814;2024-03-02T12:59:06;19.90;88.90
30534;DHT22;73248;52.398;9.814;2024-03-02T13:01:31;19.90;88.40
30534;DHT22;73248;52.398;9.814;2024-03-02T13:03:58;20.30;89.30
30534;DHT22;73248;52.398;9.814;2024-03-02T13:06:25;20.50;89.70
30534;DHT22;73248;52.398;9.814;2024-03-02T13:08:54;20.80;87.10
30534;DHT22;73248;52.398;9.814;2024-03-02T13:11:22;20.80;89.10
30534;DHT22;73248;52.398;9.814;2024-03-02T13:13:48;21.00;86.60
30534;DHT22;73248;52.398;9.814;2024-03-02T13:16:14;21.20;86.70
30534;DHT22;73248;52.398;9.814;2024-03-02T13:18:44;21.40;85.30
30534;DHT22;73248;52.398;9.814;2024-03-02T13:21:10;21.50;85.90
30534;DHT22;73248;52.398;9.814;2024-03-02T13:23:35;21.80;85.00
30534;DHT22;73248;52.398;9.814;2024-03-02T13:26:01;21.90;85.60
30534;DHT22;73248;52.398;9.814;2024-03-02T13:28:27;21.70;84.60
30534;DHT22;73248;52.398;9.814;2024-03-02T13:30:52;22.00;82.50
30534;DHT22;73248;52.398;9.814;2024-03-02T13:33:18;21.60;82.20
30534;DHT22;73248;52.398;9.814;2024-03-02T13:35:48;22.00;83.40
30534;DHT22;73248;52.398;9.814;2024-03-02T13:38:19;22.20;81.50
30534;DHT22;73248;52.398;9.814;2024-03-02T13:40:45;22.50;81.10
30534;DHT22;73248;52.398;9.814;2024-03-02T13:43:11;21.90;80.80
30534;DHT22;73248;52.398;9.814;2024-03-02T13:45:37;22.20;81.80
30534;DHT22;73248;52.398;9.814;2024-03-02T13:48:03;22.60;79.50
30534;DHT22;73248;52.398;9.814;2024-03-02T13:50:29;22.30;78.30
30534;DHT22;73248;52.398;9.814;2024-03-02T13:52:55;21.90;78.30
30534;DHT22;73248;52.398;9.814;2024-03-02T13:55:22;21.30;80.60
30534;DHT22;73248;52.398;9.814;2024-03-02T13:57:47;21.70;80.00
30534;DHT22;73248;52.398;9.814;2024-03-02T14:00:16;21.70;79.80
30534;DHT22;73248;52.398;9.814;2024-03-02T14:02:43;21.80;79.50
30534;DHT22;73248;52.398;9.814;2024-03-02T14:05:08;21.90;77.90
30534;DHT22;73248;52.398;9.814;2024-03-02T14:07:38;22.00;77.70
30534;DHT22;73248;52.398;9.814;2024-03-02T14:10:04;22.20;78.50
30534;DHT22;73248;52.398;9.814;2024-03-02T14:12:30;22.40;80.20
30534;DHT22;73248;52.398;9.814;2024-03-02T14:14:56;22.80;78.20
30534;DHT22;73248;52.398;9.814;2024-03-02T14:17:24;22.50;77.00
30534;DHT22;73248;52.398;9.814;2024-03-02T14:19:50;22.80;76.20
30534;DHT22;73248;52.398;9.814;2024-03-02T14:22:16;22.80;75.50
30534;DHT22;73248;52.398;9.814;2024-03-02T14:24:43;22.40;74.80
30534;DHT22;73248;52.398;9.814;2024-03-02T14:27:09;22.30;76.30
30534;DHT22;73248;52.398;9.814;2024-03-02T14:29:35;22.00;76.40
30534;DHT22;73248;52.398;9.814;2024-03-02T14:32:03;21.70;77.00
30534;DHT22;73248;52.398;9.814;2024-03-02T14:34:29;22.00;75.30
30534;DHT22;73248;52.398;9.814;2024-03-02T14:36:55;21.50;75.00
30534;DHT22;73248;52.398;9.814;2024-03-02T14:39:20;21.40;75.30
30534;DHT22;73248;52.398;9.814;2024-03-02T14:41:46;21.20;75.40
30534;DHT22;73248;52.398;9.814;2024-03-02T14:44:12;21.20;75.60
30534;DHT22;73248;52.398;9.814;2024-03-02T14:46:38;21.20;75.70
30534;DHT22;73248;52.398;9.814;2024-03-02T14:49:04;21.20;75.90
30534;DHT22;73248;52.398;9.814;2024-03-02T14:51:29;20.90;76.40
30534;DHT22;73248;52.398;9.814;2024-03-02T14:53:55;21.00;75.10
30534;DHT22;73248;52.398;9.814;2024-03-02T14:56:21;20.60;76.60
30534;DHT22;73248;52.398;9.814;2024-03-02T14:58:47;20.30;76.90
30534;DHT22;73248;52.398;9.814;2024-03-02T15:01:13;20.30;76.40
30534;DHT22;73248;52.398;9.814;2024-03-02T15:03:40;20.10;76.50
30534;DHT22;73248;52.398;9.814;2024-03-02T15:06:06;19.90;77.10
30534;DHT22;73248;52.398;9.814;2024-03-02T15:08:33;19.80;77.20
30534;DHT22;73248;52.398;9.814;2024-03-02T15:10:58;19.20;77.70
30534;DHT22;73248;52.398;9.814;2024-03-02T15:13:25;19.00;78.20
30534;DHT22;73248;52.398;9.814;2024-03-02T15:15:52;19.10;78.00
30534;DHT22;73248;52.398;9.814;2024-03-02T15:18:18;18.60;78.60
30534;DHT22;73248;52.398;9.814;2024-03-02T15:20:43;18.50;78.60
30534;DHT22;73248;52.398;9.814;2024-03-02T15:23:11;18.50;78.30
30534;DHT22;73248;52.398;9.814;2024-03-02T15:25:36;17.90;79.40
30534;DHT22;73248;52.398;9.814;2024-03-02T15:28:02;17.60;80.20
30534;DHT22;73248;52.398;9.814;2024-03-02T15:30:28;17.60;80.40
30534;DHT22;73248;52.398;9.814;2024-03-02T15:32:53;17.60;81.10
30534;DHT22;73248;52.398;9.814;2024-03-02T15:35:19;17.60;81.50
30534;DHT22;73248;52.398;9.814;2024-03-02T15:37:44;17.50;81.90
30534;DHT22;73248;52.398;9.814;2024-03-02T15:40:10;17.50;83.00
30534;DHT22;73248;52.398;9.814;2024-03-02T15:42:36;17.60;83.20
30534;DHT22;73248;52.398;9.814;2024-03-02T15:45:02;17.70;83.40
30534;DHT22;73248;52.398;9.814;2024-03-02T15:47:28;17.70;83.50